Time;durP1;ratioP1;P1;durP2;ratioP2;P2;SDS_P1;SDS_P2;PMS_P1;PMS_P2;Temp;Humidity;BMP_temperature;BMP_pressure;BME280_temperature;BME280_humidity;BME280_pressure;Samples;Min_cycle;Max_cycle;Signal;HPM_P1;HPM_P2
2022/12/06 00:01:14;;;;;;;83.60;36.75;;;;;;;3.42;100.00;101955.59;5054461;28;20036;-48
2022/12/06 00:03:41;;;;;;;89.03;40.15;;;;;;;3.42;100.00;101953.06;5053993;28;20106;-48
2022/12/06 00:06:10;;;;;;;94.60;41.50;;;;;;;3.42;100.00;101958.16;5053632;28;20032;-47
2022/12/06 00:08:37;;;;;;;85.45;38.92;;;;;;;3.42;100.00;101953.06;5054948;28;20104;-46
2022/12/06 00:11:15;;;;;;;89.47;40.72;;;;;;;3.42;100.00;101956.50;5053402;28;20396;-46
2022/12/06 00:13:41;;;;;;;85.15;38.70;;;;;;;3.41;100.00;101953.84;5053417;28;20017;-48
2022/12/06 00:16:17;;;;;;;85.63;39.47;;;;;;;3.42;100.00;101945.41;5054189;28;20102;-45
2022/12/06 00:18:44;;;;;;;86.70;38.53;;;;;;;3.40;100.00;101941.88;5053508;28;20037;-48
2022/12/06 00:21:16;;;;;;;90.05;40.40;;;;;;;3.43;100.00;101949.75;5053741;28;20029;-45
2022/12/06 00:23:44;;;;;;;92.47;40.00;;;;;;;3.41;100.00;101954.72;5053698;28;20099;-48
2022/12/06 00:26:11;;;;;;;84.93;39.13;;;;;;;3.41;100.00;101947.09;5053594;28;20028;-47
2022/12/06 00:28:37;;;;;;;85.15;40.30;;;;;;;3.41;100.00;101948.75;5053659;28;20033;-47
2022/12/06 00:31:05;;;;;;;82.97;39.00;;;;;;;3.41;100.00;101953.84;5053886;28;20487;-46
2022/12/06 00:33:31;;;;;;;77.35;35.92;;;;;;;3.42;100.00;101945.41;5052842;28;20365;-46
2022/12/06 00:36:02;;;;;;;82.28;38.63;;;;;;;3.41;100.00;101953.84;5054522;28;20522;-47
2022/12/06 00:38:29;;;;;;;83.45;37.45;;;;;;;3.41;100.00;101956.41;5053646;28;20029;-46
2022/12/06 00:41:08;;;;;;;84.50;38.15;;;;;;;3.42;100.00;101955.59;5052537;28;20033;-45
2022/12/06 00:43:34;;;;;;;77.47;38.03;;;;;;;3.40;100.00;101942.75;5053386;28;20048;-45
2022/12/06 00:46:00;;;;;;;80.47;38.05;;;;;;;3.41;100.00;101938.56;5053665;28;20436;-47
2022/12/06 00:48:27;;;;;;;78.38;37.20;;;;;;;3.41;100.00;101946.22;5053216;28;20103;-46
2022/12/06 00:50:52;;;;;;;77.85;37.05;;;;;;;3.41;100.00;101946.22;5053425;28;20048;-48
2022/12/06 00:53:18;;;;;;;73.22;36.17;;;;;;;3.41;100.00;101943.66;5053832;28;20496;-46
2022/12/06 00:55:44;;;;;;;74.35;36.33;;;;;;;3.41;100.00;101941.13;5052660;28;20412;-46
2022/12/06 00:58:10;;;;;;;74.15;36.38;;;;;;;3.40;100.00;101942.75;5053303;28;20440;-46
2022/12/06 01:00:36;;;;;;;72.88;36.20;;;;;;;3.40;100.00;101945.31;5052696;28;20494;-47
2022/12/06 01:03:02;;;;;;;77.15;36.35;;;;;;;3.41;100.00;101941.13;5052978;28;20064;-46
2022/12/06 01:05:27;;;;;;;79.68;36.10;;;;;;;3.42;100.00;101953.06;5053384;28;20423;-49
2022/12/06 01:07:53;;;;;;;76.38;34.65;;;;;;;3.42;100.00;101947.97;5052807;28;20061;-48
2022/12/06 01:10:18;;;;;;;76.20;35.35;;;;;;;3.42;100.00;101953.06;5052749;28;20525;-44
2022/12/06 01:12:43;;;;;;;71.88;33.90;;;;;;;3.42;100.00;101946.31;5052916;28;20025;-47
2022/12/06 01:15:09;;;;;;;72.60;32.13;;;;;;;3.42;100.00;101945.41;5052907;28;20112;-47
2022/12/06 01:17:35;;;;;;;78.90;34.00;;;;;;;3.42;100.00;101951.41;5052101;28;20433;-47
2022/12/06 01:20:00;;;;;;;65.13;30.25;;;;;;;3.43;100.00;101947.19;5053446;28;20021;-45
2022/12/06 01:22:26;;;;;;;68.00;29.95;;;;;;;3.43;100.00;101947.19;5052097;28;20021;-48
2022/12/06 01:24:51;;;;;;;69.47;28.90;;;;;;;3.42;100.00;101943.78;5052927;28;20029;-48
2022/12/06 01:27:16;;;;;;;64.38;28.23;;;;;;;3.43;100.00;101947.19;5052909;28;20036;-49
2022/12/06 01:29:42;;;;;;;69.78;28.50;;;;;;;3.43;100.00;101942.09;5051677;28;20056;-48
2022/12/06 01:32:07;;;;;;;63.60;28.23;;;;;;;3.45;100.00;101948.22;5053117;28;20040;-48
2022/12/06 01:34:32;;;;;;;76.25;32.70;;;;;;;3.45;100.00;101950.75;5052702;28;20032;-45
2022/12/06 01:36:58;;;;;;;78.50;33.67;;;;;;;3.45;100.00;101951.63;5052642;28;20024;-48
2022/12/06 01:39:23;;;;;;;76.07;33.25;;;;;;;3.45;100.00;101950.75;5052736;28;20066;-45
2022/12/06 01:41:48;;;;;;;84.18;35.88;;;;;;;3.45;100.00;101951.63;5052443;28;20036;-46
2022/12/06 01:44:47;;;;;;;94.15;37.60;;;;;;;3.48;100.00;101950.97;5051903;28;20021;-47
2022/12/06 01:47:18;;;;;;;91.75;37.55;;;;;;;3.46;100.00;101953.44;5052990;28;20054;-48
2022/12/06 01:49:49;;;;;;;89.97;36.40;;;;;;;3.47;100.00;101949.19;5052092;28;20361;-46
2022/12/06 01:52:16;;;;;;;84.95;36.35;;;;;;;3.48;100.00;101940.78;5052091;28;20479;-47
2022/12/06 01:54:42;;;;;;;91.10;34.53;;;;;;;3.48;100.00;101935.69;5052239;28;20544;-47
2022/12/06 01:57:10;;;;;;;77.93;33.22;;;;;;;3.48;100.00;101940.78;5052488;28;20141;-49
2022/12/06 01:59:36;;;;;;;83.55;33.75;;;;;;;3.48;100.00;101942.47;5051861;28;20037;-48
2022/12/06 02:02:01;;;;;;;77.47;34.17;;;;;;;3.48;100.00;101945.00;5052862;28;20549;-46
2022/12/06 02:04:29;;;;;;;77.25;33.40;;;;;;;3.47;100.00;101944.09;5052473;28;20439;-45
2022/12/06 02:06:55;;;;;;;;;;;;;;;3.56;100.00;101942.25;5052580;28;20029;-46
2022/12/06 02:09:21;;;;;;;67.03;30.25;;;;;;;3.46;100.00;101937.25;5052743;28;19913;-49
2022/12/06 02:11:47;;;;;;;69.65;30.33;;;;;;;3.45;100.00;101949.09;5051636;28;20024;-48
2022/12/06 02:14:16;;;;;;;68.10;29.65;;;;;;;3.44;100.00;101948.97;5053019;28;20028;-48
2022/12/06 02:17:17;;;;;;;66.05;28.02;;;;;;;3.45;100.00;101946.53;5052509;28;20021;-48
2022/12/06 02:20:02;;;;;;;58.80;27.48;;;;;;;3.44;100.00;101943.88;5051115;28;20029;-47
2022/12/06 02:23:04;;;;;;;66.30;27.33;;;;;;;3.44;100.00;101938.78;5052663;28;20032;-47
2022/12/06 02:25:48;;;;;;;58.97;26.27;;;;;;;3.43;100.00;101942.09;5052277;28;20468;-43
2022/12/06 02:28:30;;;;;;;61.13;26.33;;;;;;;3.42;100.00;101945.41;5052599;28;20417;-44
2022/12/06 02:31:11;;;;;;;60.05;26.38;;;;;;;3.41;100.00;101938.56;5052186;28;20376;-43
2022/12/06 02:33:51;;;;;;;66.00;26.33;;;;;;;3.37;100.00;101937.44;5052314;28;20051;-45
2022/12/06 02:36:21;;;;;;;65.55;26.95;;;;;;;3.37;100.00;101933.97;5056029;28;20043;-44
2022/12/06 02:38:50;;;;;;;65.30;26.48;;;;;;;3.37;100.00;101936.53;5055452;28;20041;-44
2022/12/06 02:41:26;;;;;;;61.67;26.00;;;;;;;3.37;100.00;101936.53;5055691;28;20053;-45
2022/12/06 02:44:00;;;;;;;62.63;25.77;;;;;;;3.36;100.00;101934.78;5055923;28;20036;-44
2022/12/06 02:46:28;;;;;;;61.50;25.80;;;;;;;3.35;100.00;101927.91;5055954;28;20104;-44
2022/12/06 02:48:57;;;;;;;68.57;26.88;;;;;;;3.35;100.00;101927.91;5055132;28;20032;-44
2022/12/06 02:51:25;;;;;;;63.92;27.85;;;;;;;3.34;100.00;101928.66;5056151;28;20063;-45
2022/12/06 02:53:52;;;;;;;;;;;;;;;3.42;100.00;101925.03;5055277;28;20040;-44
2022/12/06 02:56:18;;;;;;;70.15;27.08;;;;;;;3.35;100.00;101922.81;5055865;28;19919;-45
2022/12/06 02:58:43;;;;;;;68.68;26.58;;;;;;;3.33;100.00;101925.25;5055604;28;20052;-44
2022/12/06 03:01:13;;;;;;;72.35;28.13;;;;;;;3.33;100.00;101920.16;5054811;28;20061;-44
2022/12/06 03:03:54;;;;;;;72.65;27.40;;;;;;;3.33;100.00;101920.16;5055194;28;20501;-44
2022/12/06 03:06:29;;;;;;;72.32;27.77;;;;;;;3.34;100.00;101924.44;5055698;28;20064;-44
2022/12/06 03:09:12;;;;;;;70.75;26.50;;;;;;;3.34;100.00;101921.03;5054745;28;20025;-45
2022/12/06 03:12:00;;;;;;;66.35;27.10;;;;;;;3.35;100.00;101927.91;5055032;28;20096;-44
2022/12/06 03:14:31;;;;;;;66.20;26.63;;;;;;;3.34;100.00;101931.22;5055375;28;20468;-44
2022/12/06 03:17:19;;;;;;;71.35;27.73;;;;;;;3.37;100.00;101928.88;5055168;28;20040;-45
2022/12/06 03:19:49;;;;;;;73.05;27.70;;;;;;;3.33;100.00;101924.34;5051359;28;20400;-45
2022/12/06 03:22:22;;;;;;;70.82;27.63;;;;;;;3.35;100.00;101933.88;5054526;28;20464;-44
2022/12/06 03:24:49;;;;;;;90.20;30.10;;;;;;;3.35;100.00;101927.91;5054919;28;20431;-43
2022/12/06 03:27:18;;;;;;;73.72;28.95;;;;;;;3.35;100.00;101925.34;5055156;28;20064;-45
2022/12/06 03:29:49;;;;;;;79.35;30.55;;;;;;;3.36;100.00;101930.56;5054422;28;20029;-43
2022/12/06 03:32:18;;;;;;;84.93;30.73;;;;;;;3.36;100.00;101932.22;5055339;28;20117;-44
2022/12/06 03:34:48;;;;;;;80.03;30.95;;;;;;;3.36;100.00;101934.78;5054380;28;20032;-44
2022/12/06 03:37:19;;;;;;;81.70;30.17;;;;;;;3.37;100.00;101936.53;5054625;28;20091;-44
2022/12/06 03:40:03;;;;;;;80.22;30.60;;;;;;;3.38;100.00;101930.66;5054717;28;20025;-45
2022/12/06 03:42:30;;;;;;;75.47;29.58;;;;;;;3.38;100.00;101933.22;5054703;28;20396;-44
2022/12/06 03:44:56;;;;;;;83.43;30.98;;;;;;;3.38;100.00;101934.13;5053844;28;20021;-45
2022/12/06 03:47:36;;;;;;;80.65;30.33;;;;;;;3.40;100.00;101926.59;5055139;28;20017;-44
2022/12/06 03:50:15;;;;;;;84.25;30.42;;;;;;;3.39;100.00;101925.69;5054144;28;20025;-45
2022/12/06 03:52:40;;;;;;;87.63;31.70;;;;;;;3.39;100.00;101925.69;5054735;28;20115;-44
2022/12/06 03:55:06;;;;;;;80.05;30.90;;;;;;;3.38;100.00;101923.03;5054592;28;20107;-43
2022/12/06 03:57:31;;;;;;;88.22;32.05;;;;;;;3.38;100.00;101928.13;5053650;28;20060;-45
2022/12/06 03:59:57;;;;;;;80.47;29.52;;;;;;;3.38;100.00;101928.13;5054942;28;20043;-44
2022/12/06 04:02:22;;;;;;;81.38;31.13;;;;;;;3.38;100.00;101930.66;5054665;28;20045;-44
2022/12/06 04:04:48;;;;;;;84.30;32.28;;;;;;;3.38;100.00;101929.03;5053633;28;20380;-44
2022/12/06 04:07:14;;;;;;;86.65;31.83;;;;;;;3.40;100.00;101924.03;5054543;28;20025;-44
2022/12/06 04:09:51;;;;;;;85.47;31.60;;;;;;;3.38;100.00;101929.03;5054128;28;20086;-44
2022/12/06 04:15:00;;;;;;;76.28;29.88;;;;;;;3.40;100.00;101926.59;5054521;28;20147;-44
2022/12/06 04:20:10;;;;;;;80.18;29.85;;;;;;;3.41;100.00;101923.28;5053845;28;20414;-44
2022/12/06 04:25:19;;;;;;;83.50;29.92;;;;;;;3.41;100.00;101923.28;5053796;28;20040;-44
2022/12/06 04:38:43;;;;;;;78.25;29.83;;;;;;;3.42;100.00;101927.56;5053561;28;20124;-44
2022/12/06 04:41:10;;;;;;;83.65;29.73;;;;;;;3.42;100.00;101930.13;5053232;28;20025;-44
2022/12/06 04:43:41;;;;;;;84.97;28.92;;;;;;;3.43;100.00;101931.91;5053649;28;20029;-44
2022/12/06 04:46:11;;;;;;;83.65;28.90;;;;;;;3.41;100.00;101928.38;5053556;28;20384;-44
2022/12/06 04:48:37;;;;;;;77.82;28.17;;;;;;;3.42;100.00;101928.47;5052806;28;20086;-44
2022/12/06 04:51:03;;;;;;;74.25;27.48;;;;;;;3.42;100.00;101931.03;5053642;28;20033;-44
2022/12/06 04:53:28;;;;;;;88.18;27.95;;;;;;;3.42;100.00;101925.03;5052931;28;20032;-44
2022/12/06 04:55:53;;;;;;;70.95;27.55;;;;;;;3.41;100.00;101924.16;5052689;28;20526;-44
2022/12/06 04:58:19;;;;;;;81.78;27.88;;;;;;;3.40;100.00;101929.13;5053535;28;20087;-45
2022/12/06 05:00:44;;;;;;;73.22;25.92;;;;;;;3.40;100.00;101917.28;5052515;28;20060;-43
2022/12/06 05:03:11;;;;;;;83.97;27.13;;;;;;;3.40;100.00;101926.59;5053213;28;20372;-44
2022/12/06 05:05:36;;;;;;;77.20;27.52;;;;;;;3.38;100.00;101921.38;5053114;28;20036;-44
2022/12/06 05:08:02;;;;;;;76.07;26.52;;;;;;;3.39;100.00;101922.25;5052581;28;20025;-44
2022/12/06 05:10:27;;;;;;;73.05;26.35;;;;;;;3.39;100.00;101927.34;5053163;28;20064;-43
2022/12/06 05:12:53;;;;;;;85.72;27.75;;;;;;;3.39;100.00;101924.81;5052960;28;20108;-45
2022/12/06 05:15:18;;;;;;;81.25;26.58;;;;;;;3.39;100.00;101924.81;5052575;28;20033;-44
2022/12/06 05:17:43;;;;;;;75.03;26.58;;;;;;;3.37;100.00;101918.69;5052949;28;20025;-44
2022/12/06 05:20:09;;;;;;;77.60;26.70;;;;;;;3.37;100.00;101918.69;5052875;28;20395;-43
2022/12/06 05:22:34;;;;;;;71.97;25.65;;;;;;;3.36;100.00;101915.28;5052259;28;20037;-44
2022/12/06 05:24:59;;;;;;;65.85;25.33;;;;;;;3.35;100.00;101917.72;5052861;28;20025;-44
2022/12/06 05:27:25;;;;;;;70.15;24.55;;;;;;;3.33;100.00;101914.13;5053016;28;20028;-44
2022/12/06 05:29:50;;;;;;;76.57;25.55;;;;;;;3.32;100.00;101920.00;5052201;28;20057;-44
2022/12/06 05:32:16;;;;;;;71.03;24.30;;;;;;;3.29;100.00;101919.00;5053185;28;20025;-45
2022/12/06 05:34:41;;;;;;;58.35;23.80;;;;;;;3.27;100.00;101917.13;5052561;28;20025;-43
2022/12/06 05:37:06;;;;;;;67.50;23.67;;;;;;;3.25;100.00;101917.00;5052369;28;20103;-44
2022/12/06 05:39:32;;;;;;;70.38;22.98;;;;;;;3.24;100.00;101915.22;5052296;28;20029;-44
2022/12/06 05:41:57;;;;;;;60.35;22.38;;;;;;;3.22;100.00;101924.41;5052944;28;20533;-47
2022/12/06 05:44:22;;;;;;;64.30;23.10;;;;;;;3.20;100.00;101917.41;5052264;28;20044;-44
2022/12/06 05:46:48;;;;;;;56.08;22.58;;;;;;;3.20;100.00;101920.88;5052633;28;20426;-44
2022/12/06 05:49:13;;;;;;;66.47;22.63;;;;;;;3.21;100.00;101925.16;5052412;28;20134;-44
2022/12/06 05:51:38;;;;;;;73.30;23.40;;;;;;;3.21;100.00;101924.28;5051902;28;20033;-48
2022/12/06 05:54:05;;;;;;;57.70;21.95;;;;;;;3.23;100.00;101921.09;5052607;28;20021;-44
2022/12/06 05:56:31;;;;;;;60.53;21.60;;;;;;;3.22;100.00;101926.94;5052724;28;20048;-44
2022/12/06 05:58:56;;;;;;;62.55;22.23;;;;;;;3.21;100.00;101922.63;5052236;28;20029;-43
2022/12/06 06:01:22;;;;;;;58.15;21.48;;;;;;;3.21;100.00;101926.84;5052740;28;20047;-44
2022/12/06 06:03:47;;;;;;;63.10;21.45;;;;;;;3.18;100.00;101922.41;5051354;28;20049;-44
2022/12/06 06:06:12;;;;;;;53.30;21.20;;;;;;;3.17;100.00;101927.38;5052872;28;20024;-44
2022/12/06 06:08:38;;;;;;;58.50;21.00;;;;;;;3.15;100.00;101922.16;5053172;28;20053;-44
2022/12/06 06:11:03;;;;;;;61.45;21.75;;;;;;;3.17;100.00;101927.38;5056130;28;20105;-44
2022/12/06 06:13:29;;;;;;;56.20;21.70;;;;;;;3.12;100.00;101929.56;5056720;28;20491;-45
2022/12/06 06:15:54;;;;;;;56.80;21.13;;;;;;;3.12;100.00;101927.91;5056190;28;20056;-44
2022/12/06 06:18:20;;;;;;;62.15;21.40;;;;;;;3.12;100.00;101924.47;5055627;28;20017;-43
2022/12/06 06:20:55;;;;;;;54.55;20.63;;;;;;;3.10;100.00;101931.13;5056203;28;20035;-44
2022/12/06 06:23:21;;;;;;;52.10;20.63;;;;;;;3.06;100.00;101924.91;5056125;28;20124;-44
2022/12/06 06:25:46;;;;;;;54.03;21.10;;;;;;;3.05;100.00;101925.66;5055667;28;20108;-44
2022/12/06 06:28:12;;;;;;;55.05;21.40;;;;;;;3.05;100.00;101924.78;5056561;28;20033;-43
2022/12/06 06:30:37;;;;;;;44.00;18.92;;;;;;;2.96;100.00;101927.50;5055824;28;20031;-43
2022/12/06 06:33:02;;;;;;;53.95;20.27;;;;;;;2.93;100.00;101930.69;5055735;28;20021;-44
2022/12/06 06:35:28;;;;;;;49.25;19.70;;;;;;;2.91;100.00;101929.66;5056264;28;20082;-43
2022/12/06 06:37:53;;;;;;;46.67;19.27;;;;;;;2.89;100.00;101931.22;5055474;28;20542;-43
2022/12/06 06:40:19;;;;;;;43.25;18.52;;;;;;;2.77;100.00;101927.72;5055634;28;20543;-44
2022/12/06 06:42:44;;;;;;;50.85;18.88;;;;;;;2.69;100.00;101918.59;5055848;28;20024;-45
2022/12/06 06:45:10;;;;;;;49.10;18.58;;;;;;;2.67;100.00;101923.53;5055922;28;20072;-47
2022/12/06 06:47:35;;;;;;;55.15;19.42;;;;;;;2.62;100.00;101925.75;5054985;28;20090;-48
2022/12/06 06:50:00;;;;;;;53.30;18.42;;;;;;;2.63;100.00;101924.06;5055882;28;20025;-48
2022/12/06 06:52:25;;;;;;;50.40;19.42;;;;;;;2.60;100.00;101914.53;5055617;28;20025;-48
2022/12/06 06:54:51;;;;;;;43.30;18.30;;;;;;;2.55;100.00;101920.03;5054796;28;20470;-48
2022/12/06 06:57:17;;;;;;;48.47;18.75;;;;;;;2.47;100.00;101920.31;5055947;28;20055;-47
2022/12/06 06:59:42;;;;;;;46.10;18.10;;;;;;;2.38;100.00;101923.78;5055194;28;20052;-49
2022/12/06 07:02:12;;;;;;;45.35;18.08;;;;;;;2.32;100.00;101924.16;5055046;28;20544;-49
2022/12/06 07:04:37;;;;;;;47.20;18.33;;;;;;;2.21;100.00;101913.16;5055344;28;20460;-47
2022/12/06 07:07:02;;;;;;;53.97;19.23;;;;;;;2.29;100.00;101919.72;5054672;28;20021;-48
2022/12/06 07:09:28;;;;;;;46.17;17.88;;;;;;;2.23;100.00;101921.78;5055670;28;20017;-48
2022/12/06 07:11:53;;;;;;;57.10;18.52;;;;;;;2.25;100.00;101920.25;5055026;28;20033;-48
2022/12/06 07:14:18;;;;;;;50.50;19.77;;;;;;;2.26;100.00;101929.66;5054755;28;20035;-48
2022/12/06 07:16:43;;;;;;;54.20;19.35;;;;;;;2.33;100.00;101922.53;5054833;28;20036;-48
2022/12/06 07:19:09;;;;;;;49.38;18.27;;;;;;;2.33;100.00;101920.88;5054535;28;20526;-47
2022/12/06 07:21:34;;;;;;;50.40;19.52;;;;;;;2.35;100.00;101919.34;5054181;28;20029;-47
2022/12/06 07:24:00;;;;;;;55.88;19.85;;;;;;;2.36;100.00;101916.00;5055385;28;20021;-47
2022/12/06 07:26:27;;;;;;;51.42;18.95;;;;;;;2.41;100.00;101919.81;5055131;28;20543;-48
2022/12/06 07:28:53;;;;;;;56.22;18.83;;;;;;;2.45;100.00;101926.03;5054209;28;20530;-48
2022/12/06 07:31:23;;;;;;;49.88;18.50;;;;;;;2.49;100.00;101922.09;5054848;28;20132;-49
2022/12/06 07:33:54;;;;;;;53.42;18.02;;;;;;;2.50;100.00;101922.22;5054447;28;20027;-46
2022/12/06 07:36:22;;;;;;;54.70;17.35;;;;;;;2.53;100.00;101925.00;5054376;28;20029;-48
2022/12/06 07:38:49;;;;;;;45.95;16.80;;;;;;;2.54;100.00;101928.44;5054749;28;20103;-48
2022/12/06 07:46:44;;;;;;;45.72;15.82;;;;;;;2.58;100.00;101927.91;5054435;28;20044;-48
2022/12/06 07:49:10;;;;;;;41.15;14.93;;;;;;;2.56;100.00;101926.91;5054077;28;20025;-45
2022/12/06 07:51:36;;;;;;;48.38;15.25;;;;;;;2.54;100.00;101926.75;5054490;28;20040;-48
2022/12/06 07:54:02;;;;;;;42.08;15.60;;;;;;;2.55;100.00;101937.84;5054684;28;20029;-48
2022/12/06 07:56:27;;;;;;;32.70;14.60;;;;;;;2.59;100.00;101933.09;5053868;28;20123;-48
2022/12/06 07:58:52;;;;;;;42.05;14.35;;;;;;;2.57;100.00;101937.22;5054173;28;20029;-48
2022/12/06 08:01:18;;;;;;;30.33;13.65;;;;;;;2.57;100.00;101944.84;5054323;28;20040;-47
2022/12/06 08:03:43;;;;;;;35.58;14.30;;;;;;;2.58;100.00;101944.09;5053345;28;20412;-46
2022/12/06 08:06:09;;;;;;;37.15;14.60;;;;;;;2.65;100.00;101940.38;5054556;28;20029;-48
2022/12/06 08:08:35;;;;;;;38.05;13.85;;;;;;;2.68;100.00;101945.69;5053931;28;20033;-47
2022/12/06 08:11:04;;;;;;;41.35;14.82;;;;;;;2.71;100.00;101945.03;5053791;28;20017;-49
2022/12/06 08:13:29;;;;;;;38.42;14.73;;;;;;;2.74;100.00;101940.22;5054493;28;20078;-48
2022/12/06 08:15:55;;;;;;;43.22;14.60;;;;;;;2.77;100.00;101933.69;5053717;28;20021;-47
2022/12/06 08:18:20;;;;;;;39.15;14.65;;;;;;;2.80;100.00;101940.66;5053739;28;20021;-49
2022/12/06 08:20:46;;;;;;;39.40;15.10;;;;;;;2.86;100.00;101941.16;5054070;28;20424;-46
2022/12/06 08:23:11;;;;;;;44.00;14.32;;;;;;;2.89;100.00;101943.97;5053801;28;20083;-48
2022/12/06 08:25:36;;;;;;;63.38;30.48;;;;;;;2.94;100.00;101936.66;5053222;28;20399;-48
2022/12/06 08:28:02;;;;;;;65.65;30.08;;;;;;;3.00;100.00;101943.91;5054222;28;20487;-48
2022/12/06 08:30:28;;;;;;;69.30;31.85;;;;;;;2.95;100.00;101939.31;5053268;28;20071;-45
2022/12/06 08:32:53;;;;;;;50.80;21.73;;;;;;;2.93;100.00;101939.97;5052476;28;20033;-48
2022/12/06 08:35:18;;;;;;;285.95;119.40;;;;;;;2.86;100.00;101936.06;5053920;28;20111;-48
2022/12/06 08:37:44;;;;;;;107.93;42.25;;;;;;;2.79;100.00;101939.78;5053463;28;20029;-47
2022/12/06 08:40:09;;;;;;;208.65;90.03;;;;;;;2.72;100.00;101941.72;5053195;28;20032;-49
2022/12/06 08:42:35;;;;;;;70.88;31.38;;;;;;;2.56;100.00;101945.59;5053538;28;20040;-47
2022/12/06 08:45:00;;;;;;;72.70;31.98;;;;;;;2.54;100.00;101943.72;5053368;28;20043;-48
2022/12/06 08:47:25;;;;;;;46.55;21.60;;;;;;;2.49;100.00;101948.41;5053113;28;20025;-48
2022/12/06 08:49:50;;;;;;;43.83;16.25;;;;;;;2.45;100.00;101956.56;5053448;28;20483;-48
2022/12/06 08:52:16;;;;;;;39.33;15.93;;;;;;;2.28;100.00;101966.28;5053252;28;20021;-47
2022/12/06 08:54:42;;;;;;;36.60;15.18;;;;;;;2.25;100.00;101960.94;5052646;28;20028;-49
2022/12/06 08:57:07;;;;;;;46.67;20.08;;;;;;;2.22;100.00;101963.25;5053442;28;20426;-49
2022/12/06 08:59:33;;;;;;;74.95;35.95;;;;;;;2.20;100.00;101962.22;5052228;28;20025;-48
2022/12/06 09:01:58;;;;;;;59.72;24.70;;;;;;;2.12;100.00;101971.78;5053323;28;20124;-48
2022/12/06 09:04:23;;;;;;;50.83;22.85;;;;;;;2.14;100.00;101966.81;5053331;28;20102;-48
2022/12/06 09:06:49;;;;;;;43.25;21.63;;;;;;;2.01;100.00;101966.59;5052898;28;20048;-48
2022/12/06 09:09:16;;;;;;;47.25;22.90;;;;;;;2.03;100.00;101967.56;5053221;28;20025;-47
2022/12/06 09:11:42;;;;;;;46.13;19.35;;;;;;;1.97;100.00;101965.44;5052576;28;20577;-49
2022/12/06 09:14:11;;;;;;;40.60;19.15;;;;;;;1.93;100.00;101971.03;5052505;28;20040;-48
2022/12/06 09:16:36;;;;;;;46.53;21.63;;;;;;;1.88;100.00;101970.63;5052883;28;20079;-49
2022/12/06 09:19:02;;;;;;;48.70;22.77;;;;;;;1.88;100.00;101975.72;5053023;28;20045;-48
2022/12/06 09:21:29;;;;;;;58.70;25.38;;;;;;;1.91;100.00;101970.91;5052621;28;20033;-49
2022/12/06 09:23:55;;;;;;;61.97;24.63;;;;;;;1.98;100.00;101975.72;5052751;28;20420;-47
2022/12/06 09:26:21;;;;;;;61.05;28.08;;;;;;;1.99;100.00;101971.53;5052770;28;20017;-48
2022/12/06 09:28:49;;;;;;;78.85;34.72;;;;;;;2.05;100.00;101973.69;5051912;28;20029;-48
2022/12/06 09:31:15;;;;;;;60.65;26.27;;;;;;;2.07;100.00;101967.97;5053117;28;20025;-48
2022/12/06 09:33:40;;;;;;;60.20;24.50;;;;;;;2.07;100.00;101970.50;5052150;28;20040;-48
2022/12/06 09:36:12;;;;;;;60.30;23.23;;;;;;;2.22;100.00;101975.06;5052405;28;20561;-48
2022/12/06 09:38:38;;;;;;;60.42;22.55;;;;;;;2.18;100.00;101971.38;5052513;28;20110;-47
2022/12/06 09:41:15;;;;;;;54.95;23.95;;;;;;;2.30;100.00;101977.47;5052612;28;20107;-49
2022/12/06 09:44:12;;;;;;;54.88;24.58;;;;;;;2.39;100.00;101976.44;5051914;28;20087;-47
2022/12/06 09:47:13;;;;;;;62.05;25.15;;;;;;;2.46;100.00;101977.06;5052370;28;20032;-47
2022/12/06 09:49:45;;;;;;;60.95;23.83;;;;;;;2.64;100.00;101979.31;5051893;28;20052;-48
2022/12/06 09:52:28;;;;;;;105.35;31.45;;;;;;;3.17;100.00;101973.22;5052878;28;20025;-47
2022/12/06 09:55:21;;;;;;;100.32;32.47;;;;;;;3.37;100.00;101969.66;5052378;28;20032;-48
2022/12/06 09:58:11;;;;;;;77.75;30.00;;;;;;;3.55;100.00;101971.09;5052151;28;20025;-48
2022/12/06 10:00:59;;;;;;;58.75;25.45;;;;;;;3.66;100.00;101971.00;5052259;28;20108;-48
2022/12/06 10:03:44;;;;;;;50.10;20.17;;;;;;;3.81;100.00;101967.06;5051843;28;20392;-47
2022/12/06 10:06:15;;;;;;;37.97;17.10;;;;;;;4.09;100.00;101958.91;5052739;28;20025;-48
2022/12/06 10:08:59;;;;;;;36.13;16.63;;;;;;;4.32;100.00;101962.25;5051946;28;20091;-47
2022/12/06 10:11:42;;;;;;;31.35;13.30;;;;;;;4.25;100.00;101959.25;5051931;28;20108;-49
2022/12/06 10:14:25;;;;;;;25.77;12.95;;;;;;;4.36;100.00;101956.59;5052512;28;20029;-46
2022/12/06 10:17:25;;;;;;;32.53;14.43;;;;;;;4.26;100.00;101958.50;5051264;28;20032;-49
2022/12/06 10:19:53;;;;;;;28.48;13.50;;;;;;;4.25;100.00;101955.81;5052120;28;20503;-49
2022/12/06 10:22:39;;;;;;;35.80;15.07;;;;;;;4.32;100.00;101957.16;5052315;28;20074;-48
2022/12/06 10:25:18;;;;;;;35.05;15.40;;;;;;;4.41;100.00;101958.69;5052376;28;20036;-49
2022/12/06 10:28:22;;;;;;;28.80;14.98;;;;;;;4.56;100.00;101958.06;5052233;28;20067;-47
2022/12/06 10:30:54;;;;;;;30.75;13.88;;;;;;;4.59;100.00;101964.25;5051732;28;20376;-48
2022/12/06 10:34:01;;;;;;;23.52;12.95;;;;;;;4.68;100.00;101963.16;5052175;28;20048;-48
2022/12/06 10:36:32;;;;;;;46.15;14.15;;;;;;;4.82;100.00;101964.13;5052179;28;20056;-46
2022/12/06 10:39:14;;;;;;;29.13;13.32;;;;;;;4.98;100.00;101959.31;5051537;28;20502;-48
2022/12/06 10:41:47;;;;;;;28.55;12.80;;;;;;;5.20;100.00;101961.72;5051826;28;20036;-48
2022/12/06 10:44:36;;;;;;;30.17;12.85;;;;;;;5.46;100.00;101960.03;5052263;28;20104;-45
2022/12/06 10:47:07;;;;;;;24.92;11.65;;;;;;;5.68;100.00;101961.50;5051758;28;20068;-48
2022/12/06 10:50:06;;;;;;;25.80;11.73;;;;;;;6.00;100.00;101952.56;5051881;28;20029;-49
2022/12/06 10:52:35;;;;;;;26.88;11.60;;;;;;;6.13;100.00;101957.69;5051348;28;20035;-48
2022/12/06 10:55:18;;;;;;;24.27;11.15;;;;;;;6.36;100.00;101958.31;5053841;28;20029;-48
2022/12/06 10:58:10;;;;;;;23.20;10.80;;;;;;;6.58;100.00;101947.75;5055343;28;20036;-49
2022/12/06 11:00:53;;;;;;;30.02;10.60;;;;;;;6.73;100.00;101953.84;5054754;28;20434;-49
2022/12/06 11:03:27;;;;;;;23.13;10.75;;;;;;;6.83;100.00;101955.34;5055640;28;20392;-47
2022/12/06 11:06:01;;;;;;;19.23;9.07;;;;;;;7.08;100.00;101951.72;5055094;28;20025;-49
2022/12/06 11:08:36;;;;;;;22.60;8.93;;;;;;;7.00;99.01;101947.81;5055484;28;20025;-47
2022/12/06 11:11:04;;;;;;;21.00;8.55;;;;;;;7.21;97.79;101950.78;5055342;28;20021;-48
2022/12/06 11:13:37;;;;;;;16.25;8.10;;;;;;;7.38;97.92;101954.38;5055074;28;20036;-46
2022/12/06 11:16:10;;;;;;;16.65;7.65;;;;;;;7.44;94.36;101952.19;5055618;28;20025;-46
2022/12/06 11:18:36;;;;;;;18.23;8.05;;;;;;;7.38;94.76;101957.81;5054713;28;20476;-44
2022/12/06 11:21:17;;;;;;;19.33;9.30;;;;;;;7.63;95.84;101955.84;5054745;28;20040;-47
2022/12/06 11:24:20;;;;;;;21.50;7.95;;;;;;;7.95;97.10;101944.03;5055213;28;20074;-47
2022/12/06 11:26:50;;;;;;;18.55;7.75;;;;;;;7.84;90.86;101941.72;5054738;28;20499;-45
2022/12/06 11:29:16;;;;;;;17.48;7.03;;;;;;;7.60;88.85;101943.72;5054941;28;20056;-47
2022/12/06 11:31:46;;;;;;;17.58;7.60;;;;;;;7.68;90.36;101947.66;5054428;28;20422;-46
2022/12/06 11:34:18;;;;;;;22.05;7.13;;;;;;;7.28;88.44;101949.47;5054751;28;20084;-44
2022/12/06 11:36:45;;;;;;;23.20;6.32;;;;;;;7.11;89.51;101936.50;5054849;28;20119;-47
2022/12/06 11:39:13;;;;;;;16.17;7.90;;;;;;;7.04;91.04;101944.63;5054815;28;20032;-47
2022/12/06 11:41:40;;;;;;;18.60;6.72;;;;;;;6.87;92.19;101943.59;5054107;28;20033;-44
2022/12/06 11:44:06;;;;;;;11.48;6.32;;;;;;;6.64;89.52;101926.78;5054877;28;20037;-46
2022/12/06 11:46:31;;;;;;;16.50;7.15;;;;;;;6.54;91.90;101935.56;5054583;28;20040;-44
2022/12/06 11:49:15;;;;;;;20.15;7.10;;;;;;;6.40;93.39;101937.22;5054416;28;20410;-47